Time;durP1;ratioP1;P1;durP2;ratioP2;P2;SDS_P1;SDS_P2;PMS_P1;PMS_P2;Temp;Humidity;BMP_temperature;BMP_pressure;BME280_temperature;BME280_humidity;BME280_pressure;Samples;Min_cycle;Max_cycle;Signal;HPM_P1;HPM_P2
2023/06/26 00:01:39;;;;;;;7.20;4.40;;;;;;;;;;5040372;28;20025;-69
2023/06/26 00:04:05;;;;;;;7.85;5.03;;;;;;;;;;5046662;28;20016;-69
2023/06/26 00:06:30;;;;;;;8.45;4.80;;;;;;;;;;5035765;28;20029;-69
2023/06/26 00:08:55;;;;;;;8.57;4.90;;;;;;;;;;5035729;28;20029;-70
2023/06/26 00:11:21;;;;;;;7.50;4.53;;;;;;;;;;5046690;28;20103;-70
2023/06/26 00:13:46;;;;;;;8.18;4.88;;;;;;;;;;5041856;28;20032;-68
2023/06/26 00:16:11;;;;;;;7.30;4.60;;;;;;;;;;5050085;28;20477;-69
2023/06/26 00:18:36;;;;;;;8.33;5.03;;;;;;;;;;5046492;28;20377;-68
2023/06/26 00:21:01;;;;;;;9.93;4.93;;;;;;;;;;5043591;28;20036;-68
2023/06/26 00:23:36;;;;;;;7.95;4.60;;;;;;;;;;5033868;28;20025;-68
2023/06/26 00:26:01;;;;;;;8.65;4.97;;;;;;;;;;5026310;28;20044;-67
2023/06/26 00:28:26;;;;;;;8.80;4.88;;;;;;;;;;5028010;28;20033;-68
2023/06/26 00:30:51;;;;;;;8.40;5.05;;;;;;;;;;5038027;28;20029;-67
2023/06/26 00:33:17;;;;;;;9.48;5.00;;;;;;;;;;5042739;28;20979;-67
2023/06/26 00:35:42;;;;;;;7.97;4.60;;;;;;;;;;5048924;28;20033;-67
2023/06/26 00:38:07;;;;;;;8.13;4.90;;;;;;;;;;5047813;28;20031;-68
2023/06/26 00:40:32;;;;;;;8.65;4.85;;;;;;;;;;5039270;28;20017;-68
2023/06/26 00:42:57;;;;;;;8.05;4.90;;;;;;;;;;5046766;28;20017;-68
2023/06/26 00:45:22;;;;;;;7.13;4.75;;;;;;;;;;5043607;28;20024;-69
2023/06/26 00:47:48;;;;;;;7.97;4.83;;;;;;;;;;5046572;28;20025;-70
2023/06/26 00:50:15;;;;;;;8.20;4.80;;;;;;;;;;5049444;28;20067;-70
2023/06/26 00:52:41;;;;;;;8.60;4.55;;;;;;;;;;5041856;28;20500;-69
2023/06/26 00:55:06;;;;;;;7.87;5.00;;;;;;;;;;5045425;28;20033;-69
2023/06/26 00:57:31;;;;;;;7.73;4.60;;;;;;;;;;5045541;28;20029;-68
2023/06/26 00:59:56;;;;;;;8.80;5.10;;;;;;;;;;5049898;28;20566;-68
2023/06/26 01:02:21;;;;;;;7.70;5.00;;;;;;;;;;5038591;28;20029;-68
2023/06/26 01:04:50;;;;;;;8.57;4.75;;;;;;;;;;5042573;28;20093;-68
2023/06/26 01:07:16;;;;;;;9.80;5.18;;;;;;;;;;5042621;28;20041;-69
2023/06/26 01:09:41;;;;;;;8.95;5.00;;;;;;;;;;5037320;28;20020;-69
2023/06/26 01:12:07;;;;;;;8.65;4.50;;;;;;;;;;5049448;28;20146;-68
2023/06/26 01:14:33;;;;;;;7.30;4.87;;;;;;;;;;5046133;28;20546;-68
2023/06/26 01:17:00;;;;;;;10.52;5.00;;;;;;;;;;5045823;28;20037;-69
2023/06/26 01:19:28;;;;;;;9.23;4.97;;;;;;;;;;5047627;28;20025;-68
2023/06/26 01:21:59;;;;;;;8.80;5.07;;;;;;;;;;5049027;28;20484;-69
2023/06/26 01:24:27;;;;;;;7.65;4.40;;;;;;;;;;5032478;28;20033;-69
2023/06/26 01:26:52;;;;;;;9.23;5.00;;;;;;;;;;5046122;28;20040;-68
2023/06/26 01:29:18;;;;;;;10.25;4.82;;;;;;;;;;5053207;28;20021;-68
2023/06/26 01:31:46;;;;;;;10.03;5.13;;;;;;;;;;5043023;28;20040;-69
2023/06/26 01:34:11;;;;;;;9.05;5.45;;;;;;;;;;5040904;28;20886;-68
2023/06/26 01:36:37;;;;;;;9.60;4.88;;;;;;;;;;5054167;28;20064;-69
2023/06/26 01:39:02;;;;;;;7.72;5.00;;;;;;;;;;5050265;28;20033;-69
2023/06/26 01:41:27;;;;;;;8.97;5.30;;;;;;;;;;5054380;28;20032;-68
2023/06/26 01:43:59;;;;;;;8.45;5.32;;;;;;;;;;5050825;28;20043;-68
2023/06/26 01:46:36;;;;;;;7.90;4.97;;;;;;;;;;5051270;28;20029;-70
2023/06/26 01:49:03;;;;;;;8.05;4.70;;;;;;;;;;5053978;28;20486;-68
2023/06/26 01:51:34;;;;;;;7.65;4.93;;;;;;;;;;5047787;28;20122;-68
2023/06/26 01:54:00;;;;;;;9.57;5.10;;;;;;;;;;5052256;28;20151;-69
2023/06/26 01:56:25;;;;;;;11.65;5.43;;;;;;;;;;5053880;28;20451;-68
2023/06/26 01:58:54;;;;;;;7.82;4.93;;;;;;;;;;5053943;28;20599;-67
2023/06/26 02:01:19;;;;;;;8.98;5.18;;;;;;;;;;5048884;28;20029;-69
2023/06/26 02:03:44;;;;;;;8.13;4.80;;;;;;;;;;5047047;28;20032;-69
2023/06/26 02:06:10;;;;;;;9.18;4.80;;;;;;;;;;5055834;28;20029;-68
2023/06/26 02:08:35;;;;;;;8.45;4.97;;;;;;;;;;5054793;28;20013;-67
2023/06/26 02:11:00;;;;;;;9.80;5.65;;;;;;;;;;5048143;28;20028;-68
2023/06/26 02:13:25;;;;;;;9.73;4.93;;;;;;;;;;5055420;28;20021;-68
2023/06/26 02:15:51;;;;;;;8.75;4.82;;;;;;;;;;5055732;28;20035;-68
2023/06/26 02:18:16;;;;;;;11.77;5.60;;;;;;;;;;5052486;28;20025;-68
2023/06/26 02:20:41;;;;;;;8.93;5.07;;;;;;;;;;5045861;28;20037;-69
2023/06/26 02:23:06;;;;;;;7.70;4.93;;;;;;;;;;5051446;28;20484;-68
2023/06/26 02:25:32;;;;;;;9.13;4.90;;;;;;;;;;5053493;28;20024;-69
2023/06/26 02:27:57;;;;;;;9.55;5.43;;;;;;;;;;5043718;28;20033;-68
2023/06/26 02:30:22;;;;;;;9.27;5.43;;;;;;;;;;5045978;28;20017;-68
2023/06/26 02:32:47;;;;;;;9.63;4.97;;;;;;;;;;5045703;28;20078;-69
2023/06/26 02:35:12;;;;;;;9.77;5.50;;;;;;;;;;5044883;28;20350;-66
2023/06/26 02:37:38;;;;;;;10.10;5.03;;;;;;;;;;5040920;28;20017;-67
2023/06/26 02:40:03;;;;;;;8.63;5.25;;;;;;;;;;5046866;28;20120;-68
2023/06/26 02:42:29;;;;;;;8.90;5.28;;;;;;;;;;5040297;28;20071;-68
2023/06/26 02:44:54;;;;;;;10.27;5.20;;;;;;;;;;5044195;28;20104;-70
2023/06/26 02:47:19;;;;;;;10.40;5.83;;;;;;;;;;5049173;28;20033;-69
2023/06/26 02:49:44;;;;;;;8.88;5.05;;;;;;;;;;5043659;28;20030;-70
2023/06/26 02:52:09;;;;;;;10.13;6.25;;;;;;;;;;5039649;28;20437;-69
2023/06/26 02:54:35;;;;;;;9.70;5.47;;;;;;;;;;5042890;28;20083;-68
2023/06/26 02:57:00;;;;;;;9.80;5.28;;;;;;;;;;5052360;28;20025;-68
2023/06/26 02:59:25;;;;;;;10.05;5.47;;;;;;;;;;5049477;28;20063;-66
2023/06/26 03:01:51;;;;;;;9.88;6.10;;;;;;;;;;5051368;28;20392;-69
2023/06/26 03:04:17;;;;;;;9.35;6.07;;;;;;;;;;5052089;28;20435;-68
2023/06/26 03:06:42;;;;;;;11.60;5.85;;;;;;;;;;5053325;28;20045;-69
2023/06/26 03:09:07;;;;;;;10.63;5.30;;;;;;;;;;5053660;28;20092;-69
2023/06/26 03:11:33;;;;;;;13.73;5.38;;;;;;;;;;5048964;28;20098;-67
2023/06/26 03:13:58;;;;;;;9.45;5.32;;;;;;;;;;5043922;28;20473;-65
2023/06/26 03:16:23;;;;;;;9.27;5.55;;;;;;;;;;5043826;28;20048;-66
2023/06/26 03:18:48;;;;;;;8.73;5.45;;;;;;;;;;5046393;28;20033;-67
2023/06/26 03:21:13;;;;;;;10.50;5.35;;;;;;;;;;5048812;28;20594;-64
2023/06/26 03:23:38;;;;;;;8.43;5.20;;;;;;;;;;5049915;28;20060;-65
2023/06/26 03:26:03;;;;;;;9.57;5.45;;;;;;;;;;5052493;28;20017;-63
2023/06/26 03:28:31;;;;;;;9.07;4.97;;;;;;;;;;5040199;28;20048;-65
2023/06/26 03:30:56;;;;;;;10.25;5.35;;;;;;;;;;5042666;28;20029;-63
2023/06/26 03:33:21;;;;;;;9.07;5.43;;;;;;;;;;5050217;28;20021;-64
2023/06/26 03:35:46;;;;;;;12.00;5.43;;;;;;;;;;5045187;28;20043;-64
2023/06/26 03:38:11;;;;;;;9.43;5.00;;;;;;;;;;5052012;28;20472;-65
2023/06/26 03:40:36;;;;;;;13.50;6.20;;;;;;;;;;5052093;28;20388;-64
2023/06/26 03:43:02;;;;;;;8.98;5.30;;;;;;;;;;5050176;28;20025;-62
2023/06/26 03:45:27;;;;;;;9.02;5.07;;;;;;;;;;5049354;28;20040;-64
2023/06/26 03:47:52;;;;;;;10.10;4.93;;;;;;;;;;5043727;28;20107;-64
2023/06/26 03:50:18;;;;;;;8.40;4.90;;;;;;;;;;5049470;28;20021;-64
2023/06/26 03:52:43;;;;;;;9.57;5.00;;;;;;;;;;5056458;28;20029;-66
2023/06/26 03:55:09;;;;;;;9.35;4.63;;;;;;;;;;5035385;28;20031;-66
2023/06/26 03:57:34;;;;;;;10.33;4.93;;;;;;;;;;5042624;28;20107;-65
2023/06/26 03:59:59;;;;;;;8.47;4.87;;;;;;;;;;5050578;28;20545;-66
2023/06/26 04:02:24;;;;;;;10.27;5.50;;;;;;;;;;5039961;28;20052;-64
2023/06/26 04:04:49;;;;;;;11.43;5.33;;;;;;;;;;5049253;28;20035;-65
2023/06/26 04:07:15;;;;;;;8.53;5.00;;;;;;;;;;5044460;28;20033;-65
2023/06/26 04:09:40;;;;;;;9.50;5.23;;;;;;;;;;5050814;28;20112;-64
2023/06/26 04:12:05;;;;;;;8.17;5.10;;;;;;;;;;5050563;28;20033;-65
2023/06/26 04:14:30;;;;;;;7.97;5.07;;;;;;;;;;5039286;28;20017;-63
2023/06/26 04:16:57;;;;;;;8.20;4.63;;;;;;;;;;5050538;28;20044;-64
2023/06/26 04:19:22;;;;;;;7.68;4.93;;;;;;;;;;5051503;28;20083;-62
2023/06/26 04:21:48;;;;;;;9.07;4.93;;;;;;;;;;5041077;28;20025;-63
2023/06/26 04:24:13;;;;;;;8.67;5.13;;;;;;;;;;5049486;28;20024;-63
2023/06/26 04:26:40;;;;;;;8.07;4.93;;;;;;;;;;5041820;28;20017;-64
2023/06/26 04:29:05;;;;;;;9.65;5.30;;;;;;;;;;5045357;28;20397;-65
2023/06/26 04:31:31;;;;;;;9.88;4.63;;;;;;;;;;5043986;28;20504;-63
2023/06/26 04:33:57;;;;;;;8.63;4.80;;;;;;;;;;5043037;28;20021;-64
2023/06/26 04:36:22;;;;;;;10.02;5.07;;;;;;;;;;5034027;28;20472;-64
2023/06/26 04:38:48;;;;;;;10.23;5.00;;;;;;;;;;5047024;28;20028;-64
2023/06/26 04:41:13;;;;;;;9.63;4.80;;;;;;;;;;5035000;28;20025;-66
2023/06/26 04:43:38;;;;;;;8.55;4.55;;;;;;;;;;5030722;28;20033;-65
2023/06/26 04:46:03;;;;;;;8.85;4.95;;;;;;;;;;5043745;28;20067;-63
2023/06/26 04:48:30;;;;;;;10.30;4.72;;;;;;;;;;5039057;28;20031;-64
2023/06/26 04:50:56;;;;;;;10.68;4.80;;;;;;;;;;5045116;28;20013;-61
2023/06/26 04:53:22;;;;;;;9.40;5.10;;;;;;;;;;5041335;28;20445;-63
2023/06/26 04:55:47;;;;;;;10.43;4.90;;;;;;;;;;5028935;28;20059;-64
2023/06/26 04:58:13;;;;;;;10.38;4.88;;;;;;;;;;5026508;28;20100;-66
2023/06/26 05:00:38;;;;;;;8.93;5.47;;;;;;;;;;5041003;28;20435;-64
2023/06/26 05:03:03;;;;;;;7.43;4.90;;;;;;;;;;5036802;28;20053;-63
2023/06/26 05:05:28;;;;;;;6.85;4.53;;;;;;;;;;5042404;28;20025;-63
2023/06/26 05:07:54;;;;;;;7.33;4.20;;;;;;;;;;5046614;28;20017;-63
2023/06/26 05:10:19;;;;;;;9.05;4.55;;;;;;;;;;5029504;28;20554;-65
2023/06/26 05:12:44;;;;;;;8.52;4.80;;;;;;;;;;5027041;28;20400;-65
2023/06/26 05:15:09;;;;;;;9.93;5.05;;;;;;;;;;5040882;28;20044;-63
2023/06/26 05:17:34;;;;;;;7.07;4.43;;;;;;;;;;5044404;28;20020;-66
2023/06/26 05:19:59;;;;;;;10.35;4.53;;;;;;;;;;5038245;28;20041;-66
2023/06/26 05:22:25;;;;;;;7.97;4.15;;;;;;;;;;5050060;28;20129;-65
2023/06/26 05:24:53;;;;;;;9.05;4.28;;;;;;;;;;5035301;28;20021;-64
2023/06/26 05:27:21;;;;;;;7.63;4.60;;;;;;;;;;5046392;28;20025;-66
2023/06/26 05:29:46;;;;;;;8.15;4.60;;;;;;;;;;5050635;28;20074;-66
2023/06/26 05:32:14;;;;;;;7.67;4.10;;;;;;;;;;5052061;28;20104;-66
2023/06/26 05:34:40;;;;;;;8.38;4.78;;;;;;;;;;5053482;28;20051;-66
2023/06/26 05:37:06;;;;;;;10.15;4.47;;;;;;;;;;5053816;28;20303;-64
2023/06/26 05:39:32;;;;;;;8.98;4.68;;;;;;;;;;5056178;28;20017;-64
2023/06/26 05:41:57;;;;;;;7.82;4.50;;;;;;;;;;5055712;28;20044;-65
2023/06/26 05:44:23;;;;;;;;;;;;;;;;;;5043834;28;20041;-65
2023/06/26 05:46:48;;;;;;;7.63;4.15;;;;;;;;;;5033471;28;19909;-66
2023/06/26 05:49:13;;;;;;;;;;;;;;;;;;5028440;28;20061;-64
2023/06/26 05:51:38;;;;;;;7.68;4.60;;;;;;;;;;5038347;28;20312;-63
2023/06/26 05:54:03;;;;;;;;;;;;;;;;;;5030323;28;20061;-65
2023/06/26 05:56:28;;;;;;;7.32;4.40;;;;;;;;;;5030016;28;19916;-64
2023/06/26 05:58:53;;;;;;;;;;;;;;;;;;5031998;28;20112;-64
2023/06/26 06:01:19;;;;;;;7.55;3.88;;;;;;;;;;5042418;28;20421;-64
2023/06/26 06:03:44;;;;;;;7.25;3.85;;;;;;;;;;5042783;28;20018;-64
2023/06/26 06:06:10;;;;;;;6.47;4.30;;;;;;;;;;5047605;28;20025;-65
2023/06/26 06:08:35;;;;;;;8.20;4.65;;;;;;;;;;5038818;28;20436;-65
2023/06/26 06:11:02;;;;;;;;;;;;;;;;;;5051975;28;20033;-69
2023/06/26 06:13:28;;;;;;;7.70;4.32;;;;;;;;;;5053186;28;19921;-65
2023/06/26 06:15:53;;;;;;;6.75;4.03;;;;;;;;;;5053800;28;20013;-65
2023/06/26 06:18:18;;;;;;;7.17;4.10;;;;;;;;;;5050386;28;20601;-65
2023/06/26 06:20:43;;;;;;;;;;;;;;;;;;5040831;28;20064;-65
2023/06/26 06:23:08;;;;;;;8.77;4.60;;;;;;;;;;5045783;28;19916;-65
2023/06/26 06:25:34;;;;;;;;;;;;;;;;;;5054195;28;20485;-64
2023/06/26 06:27:59;;;;;;;7.22;4.22;;;;;;;;;;5038731;28;19963;-66
2023/06/26 06:30:24;;;;;;;;;;;;;;;;;;5046747;28;20423;-64
2023/06/26 06:32:52;;;;;;;7.95;4.07;;;;;;;;;;5041010;28;19909;-65
2023/06/26 06:35:17;;;;;;;6.63;4.07;;;;;;;;;;5044245;28;20131;-66
2023/06/26 06:37:42;;;;;;;;;;;;;;;;;;5054055;28;20029;-66
2023/06/26 06:40:09;;;;;;;6.88;3.83;;;;;;;;;;5045273;28;19917;-64
2023/06/26 06:42:35;;;;;;;7.22;3.90;;;;;;;;;;5049331;28;20029;-64
2023/06/26 06:45:00;;;;;;;;;;;;;;;;;;5043448;28;20032;-66
2023/06/26 06:47:25;;;;;;;8.45;4.13;;;;;;;;;;5053253;28;19905;-64
2023/06/26 06:49:50;;;;;;;;;;;;;;;;;;5045107;28;20093;-65
2023/06/26 06:52:16;;;;;;;6.55;3.70;;;;;;;;;;5033481;28;19915;-65
2023/06/26 06:54:41;;;;;;;;;;;;;;;;;;5043907;28;20040;-64
2023/06/26 06:57:06;;;;;;;8.10;3.97;;;;;;;;;;5052562;28;19948;-65
2023/06/26 06:59:31;;;;;;;;;;;;;;;;;;5042006;28;20503;-64
2023/06/26 07:01:56;;;;;;;6.95;3.97;;;;;;;;;;5038752;28;19952;-64
2023/06/26 07:04:21;;;;;;;;;;;;;;;;;;5047278;28;20488;-63
2023/06/26 07:06:46;;;;;;;6.70;3.47;;;;;;;;;;5052955;28;19905;-64
2023/06/26 07:09:11;;;;;;;;;;;;;;;;;;5050247;28;20025;-63
2023/06/26 07:11:37;;;;;;;6.53;3.93;;;;;;;;;;5048733;28;19935;-66
2023/06/26 07:14:03;;;;;;;;;;;;;;;;;;5049260;28;20384;-63
2023/06/26 07:16:28;;;;;;;6.22;4.03;;;;;;;;;;5052528;28;20004;-64
2023/06/26 07:18:54;;;;;;;;;;;;;;;;;;5053065;28;20035;-65
2023/06/26 07:21:19;;;;;;;6.22;3.65;;;;;;;;;;5052501;28;19912;-65
2023/06/26 07:23:44;;;;;;;;;;;;;;;;;;5049689;28;20033;-64
2023/06/26 07:26:09;;;;;;;7.53;3.60;;;;;;;;;;5052460;28;19905;-64
2023/06/26 07:28:34;;;;;;;5.68;3.67;;;;;;;;;;5051497;28;20032;-65
2023/06/26 07:31:00;;;;;;;;;;;;;;;;;;5042202;28;20033;-64
2023/06/26 07:33:25;;;;;;;6.47;3.90;;;;;;;;;;5040999;28;19913;-65
2023/06/26 07:35:50;;;;;;;;;;;;;;;;;;5046643;28;20021;-64
2023/06/26 07:38:15;;;;;;;8.52;3.88;;;;;;;;;;5052381;28;19909;-65
2023/06/26 07:40:40;;;;;;;6.28;4.20;;;;;;;;;;5052527;28;20427;-64
2023/06/26 07:43:05;;;;;;;;;;;;;;;;;;5052682;28;20024;-64
2023/06/26 07:45:30;;;;;;;7.40;4.22;;;;;;;;;;5047845;28;19962;-64
2023/06/26 07:47:55;;;;;;;;;;;;;;;;;;5046136;28;20033;-66
2023/06/26 07:50:22;;;;;;;11.35;4.20;;;;;;;;;;5054549;28;19905;-65
2023/06/26 07:52:47;;;;;;;6.63;3.95;;;;;;;;;;5052598;28;20025;-66
2023/06/26 07:55:12;;;;;;;;;;;;;;;;;;5053108;28;20095;-63
2023/06/26 07:57:37;;;;;;;7.57;4.10;;;;;;;;;;5041284;28;19912;-64
2023/06/26 08:00:02;;;;;;;;;;;;;;;;;;5052586;28;20086;-65
2023/06/26 08:02:27;;;;;;;6.80;4.18;;;;;;;;;;5051020;28;19909;-64
2023/06/26 08:04:52;;;;;;;;;;;;;;;;;;5053062;28;20017;-64
2023/06/26 08:07:18;;;;;;;7.30;3.72;;;;;;;;;;5042077;28;19913;-65
2023/06/26 08:09:43;;;;;;;7.25;4.05;;;;;;;;;;5051727;28;20020;-66
2023/06/26 08:12:09;;;;;;;6.07;4.03;;;;;;;;;;5050835;28;20092;-65
2023/06/26 08:14:34;;;;;;;7.10;3.80;;;;;;;;;;5051837;28;20021;-66
2023/06/26 08:16:59;;;;;;;8.90;4.22;;;;;;;;;;5050816;28;20155;-62
2023/06/26 08:19:24;;;;;;;;;;;;;;;;;;5058810;28;20029;-64
2023/06/26 08:21:50;;;;;;;7.60;3.90;;;;;;;;;;5055878;28;19921;-66
2023/06/26 08:24:18;;;;;;;;;;;;;;;;;;5054167;28;20511;-62
2023/06/26 08:26:44;;;;;;;6.60;4.20;;;;;;;;;;5055097;28;20375;-64
2023/06/26 08:29:10;;;;;;;6.65;4.20;;;;;;;;;;5053344;28;20021;-66
2023/06/26 08:31:35;;;;;;;;;;;;;;;;;;5052580;28;20042;-65
2023/06/26 08:34:01;;;;;;;6.75;3.53;;;;;;;;;;5046793;28;19996;-64
2023/06/26 08:36:26;;;;;;;;;;;;;;;;;;5051534;28;20152;-66
2023/06/26 08:38:51;;;;;;;8.57;4.40;;;;;;;;;;5051616;28;19909;-64
2023/06/26 08:41:16;;;;;;;7.43;3.80;;;;;;;;;;5051579;28;20066;-65
2023/06/26 08:43:41;;;;;;;7.93;3.87;;;;;;;;;;5050981;28;20029;-63
2023/06/26 08:46:07;;;;;;;5.75;3.80;;;;;;;;;;5052218;28;20111;-64
2023/06/26 08:48:36;;;;;;;7.00;3.90;;;;;;;;;;5052218;28;20028;-66
2023/06/26 08:51:05;;;;;;;6.07;3.88;;;;;;;;;;5052551;28;20028;-65
2023/06/26 08:53:48;;;;;;;8.20;4.28;;;;;;;;;;5050229;28;20021;-63
2023/06/26 08:56:15;;;;;;;6.95;4.03;;;;;;;;;;5036823;28;20040;-64
2023/06/26 08:58:41;;;;;;;7.15;4.20;;;;;;;;;;5051077;28;20035;-66
2023/06/26 09:01:06;;;;;;;6.50;4.35;;;;;;;;;;5051808;28;20013;-64
2023/06/26 09:03:31;;;;;;;;;;;;;;;;;;5050945;28;20025;-64
2023/06/26 09:05:56;;;;;;;5.97;4.00;;;;;;;;;;5049895;28;19913;-66
2023/06/26 09:08:21;;;;;;;;;;;;;;;;;;5051310;28;20426;-63
2023/06/26 09:10:47;;;;;;;8.40;4.00;;;;;;;;;;5050756;28;19904;-65
2023/06/26 09:13:12;;;;;;;8.40;4.40;;;;;;;;;;5050597;28;20024;-64
2023/06/26 09:15:39;;;;;;;6.13;4.25;;;;;;;;;;5050943;28;20443;-66
2023/06/26 09:18:04;;;;;;;5.97;4.13;;;;;;;;;;5046917;28;20058;-64
2023/06/26 09:20:30;;;;;;;;;;;;;;;;;;5047083;28;20049;-64
2023/06/26 09:22:56;;;;;;;7.65;4.50;;;;;;;;;;5050718;28;19905;-65
2023/06/26 09:25:23;;;;;;;5.75;3.75;;;;;;;;;;5050569;28;20021;-64
2023/06/26 09:27:48;;;;;;;6.70;3.95;;;;;;;;;;5047115;28;20037;-65
2023/06/26 09:30:16;;;;;;;6.43;4.10;;;;;;;;;;5050801;28;20028;-63
2023/06/26 09:32:41;;;;;;;6.90;4.10;;;;;;;;;;5049683;28;20032;-65
2023/06/26 09:35:06;;;;;;;;;;;;;;;;;;5051031;28;20021;-62
2023/06/26 09:37:32;;;;;;;6.35;4.30;;;;;;;;;;5050225;28;19913;-66
2023/06/26 09:39:57;;;;;;;9.77;4.32;;;;;;;;;;5046336;28;20017;-65
2023/06/26 09:42:23;;;;;;;6.80;4.10;;;;;;;;;;5049919;28;20029;-63
2023/06/26 09:44:48;;;;;;;6.60;4.15;;;;;;;;;;5050244;28;20013;-64
2023/06/26 09:47:18;;;;;;;6.40;4.00;;;;;;;;;;5052895;28;20082;-66
2023/06/26 09:49:43;;;;;;;6.47;4.40;;;;;;;;;;5054542;28;20804;-64
2023/06/26 09:52:09;;;;;;;;;;;;;;;;;;5054002;28;20021;-63
2023/06/26 09:54:36;;;;;;;6.55;4.20;;;;;;;;;;5054223;28;19971;-64
2023/06/26 09:57:11;;;;;;;6.00;4.20;;;;;;;;;;5053983;28;20487;-64
2023/06/26 09:59:36;;;;;;;5.95;4.10;;;;;;;;;;5051013;28;20485;-63
2023/06/26 10:02:01;;;;;;;5.33;3.93;;;;;;;;;;5052911;28;20066;-63
2023/06/26 10:04:27;;;;;;;6.60;4.33;;;;;;;;;;5053915;28;20035;-64
2023/06/26 10:06:54;;;;;;;6.17;4.13;;;;;;;;;;5053870;28;20423;-65
2023/06/26 10:09:19;;;;;;;6.35;4.05;;;;;;;;;;5053869;28;20021;-64
2023/06/26 10:12:17;;;;;;;6.88;4.15;;;;;;;;;;5053643;28;20036;-64
2023/06/26 10:14:42;;;;;;;6.18;4.30;;;;;;;;;;5049016;28;20040;-64
2023/06/26 10:17:09;;;;;;;6.25;4.07;;;;;;;;;;5050983;28;20101;-64
2023/06/26 10:19:35;;;;;;;7.30;4.20;;;;;;;;;;5049592;28;20040;-65
2023/06/26 10:22:01;;;;;;;6.72;4.07;;;;;;;;;;5036305;28;20028;-65
2023/06/26 10:24:29;;;;;;;5.68;3.92;;;;;;;;;;5053798;28;20104;-64
2023/06/26 10:26:57;;;;;;;6.55;3.85;;;;;;;;;;5053850;28;20025;-64
2023/06/26 10:29:23;;;;;;;6.45;4.13;;;;;;;;;;5044517;28;20159;-64
2023/06/26 10:31:50;;;;;;;7.63;3.72;;;;;;;;;;5043305;28;20104;-65
2023/06/26 10:34:15;;;;;;;5.90;4.00;;;;;;;;;;5037942;28;20021;-63
2023/06/26 10:36:41;;;;;;;6.00;4.07;;;;;;;;;;5051066;28;20040;-64
2023/06/26 10:39:06;;;;;;;6.07;4.10;;;;;;;;;;5055740;28;20400;-64
2023/06/26 10:41:39;;;;;;;6.47;3.72;;;;;;;;;;5055821;28;20778;-64
2023/06/26 10:44:08;;;;;;;7.15;3.70;;;;;;;;;;5055608;28;20036;-64
2023/06/26 10:46:47;;;;;;;6.65;3.83;;;;;;;;;;5049486;28;20021;-65
2023/06/26 10:49:12;;;;;;;5.47;3.42;;;;;;;;;;5034475;28;20491;-64
2023/06/26 10:51:37;;;;;;;5.68;3.83;;;;;;;;;;5041260;28;20043;-63
2023/06/26 10:54:03;;;;;;;5.95;3.83;;;;;;;;;;5050960;28;20373;-65
2023/06/26 10:56:41;;;;;;;5.93;3.47;;;;;;;;;;5042343;28;20029;-66
2023/06/26 10:59:23;;;;;;;7.13;4.10;;;;;;;;;;5030438;28;20416;-65
2023/06/26 11:01:54;;;;;;;7.20;4.32;;;;;;;;;;5032817;28;20072;-65
2023/06/26 11:04:35;;;;;;;5.95;3.63;;;;;;;;;;5052792;28;20100;-65
2023/06/26 11:07:14;;;;;;;5.63;3.38;;;;;;;;;;5053103;28;20017;-66
2023/06/26 11:09:53;;;;;;;6.15;3.58;;;;;;;;;;5047501;28;20029;-67
2023/06/26 11:12:33;;;;;;;5.70;3.75;;;;;;;;;;5031943;28;20489;-66
2023/06/26 11:14:58;;;;;;;6.20;4.25;;;;;;;;;;5032969;28;20444;-66
2023/06/26 11:17:24;;;;;;;6.17;3.90;;;;;;;;;;5036701;28;20021;-66
2023/06/26 11:19:49;;;;;;;6.20;3.83;;;;;;;;;;5052487;28;20630;-64
2023/06/26 11:22:15;;;;;;;6.77;3.70;;;;;;;;;;5048381;28;20121;-64
2023/06/26 11:24:41;;;;;;;6.00;3.60;;;;;;;;;;5050887;28;20044;-64
2023/06/26 11:27:06;;;;;;;5.90;3.45;;;;;;;;;;5052418;28;20016;-65
2023/06/26 11:29:32;;;;;;;6.03;3.42;;;;;;;;;;5052593;28;20017;-65
2023/06/26 11:32:01;;;;;;;7.40;3.83;;;;;;;;;;5051888;28;20481;-64
2023/06/26 11:34:29;;;;;;;5.82;3.47;;;;;;;;;;5052444;28;20416;-66
2023/06/26 11:36:56;;;;;;;6.80;4.00;;;;;;;;;;5041362;28;20170;-65
2023/06/26 11:39:21;;;;;;;5.43;3.70;;;;;;;;;;5048267;28;20082;-65
2023/06/26 11:41:46;;;;;;;6.03;3.70;;;;;;;;;;5050517;28;20017;-64
2023/06/26 11:44:14;;;;;;;7.73;3.40;;;;;;;;;;5051757;28;20032;-64
2023/06/26 11:46:39;;;;;;;6.82;3.67;;;;;;;;;;5050668;28;20029;-66
2023/06/26 11:49:07;;;;;;;5.65;3.60;;;;;;;;;;5031049;28;20022;-64
2023/06/26 11:51:32;;;;;;;6.53;3.53;;;;;;;;;;5031966;28;20037;-64
2023/06/26 11:54:01;;;;;;;6.13;3.70;;;;;;;;;;5047493;28;20025;-65
2023/06/26 11:56:26;;;;;;;5.78;3.63;;;;;;;;;;5051798;28;20032;-65
2023/06/26 11:59:04;;;;;;;5.28;3.40;;;;;;;;;;5051389;28;20033;-65
2023/06/26 12:01:38;;;;;;;8.40;4.30;;;;;;;;;;5051566;28;20511;-66
2023/06/26 12:04:04;;;;;;;5.72;3.63;;;;;;;;;;5051015;28;20025;-64
2023/06/26 12:06:31;;;;;;;5.63;3.50;;;;;;;;;;5051979;28;20116;-66
2023/06/26 12:08:57;;;;;;;5.88;3.60;;;;;;;;;;5045186;28;20018;-66
2023/06/26 12:11:23;;;;;;;5.20;3.60;;;;;;;;;;5051356;28;20522;-65
2023/06/26 12:13:48;;;;;;;5.20;3.33;;;;;;;;;;5040797;28;20035;-66
2023/06/26 12:16:14;;;;;;;6.70;3.70;;;;;;;;;;5046416;28;20044;-65
2023/06/26 12:18:40;;;;;;;6.38;3.90;;;;;;;;;;5035151;28;20099;-63
2023/06/26 12:21:05;;;;;;;5.90;3.75;;;;;;;;;;5043347;28;20071;-65
2023/06/26 12:23:36;;;;;;;5.40;3.47;;;;;;;;;;5050521;28;20492;-65
2023/06/26 12:26:17;;;;;;;7.40;3.90;;;;;;;;;;5043215;28;20021;-66
2023/06/26 12:28:44;;;;;;;6.82;3.75;;;;;;;;;;5048371;28;20117;-65
2023/06/26 12:31:13;;;;;;;6.75;3.92;;;;;;;;;;5047304;28;20079;-65
2023/06/26 12:33:38;;;;;;;7.53;3.70;;;;;;;;;;5047566;28;20028;-65
2023/06/26 12:36:03;;;;;;;7.45;3.58;;;;;;;;;;5043744;28;20099;-63
2023/06/26 12:38:35;;;;;;;5.85;3.58;;;;;;;;;;5045912;28;20029;-64
2023/06/26 12:41:00;;;;;;;6.13;3.80;;;;;;;;;;5045537;28;20028;-64
2023/06/26 12:43:26;;;;;;;5.67;4.00;;;;;;;;;;5051303;28;20017;-65
2023/06/26 12:45:54;;;;;;;7.20;3.97;;;;;;;;;;5051364;28;20480;-65
2023/06/26 12:48:20;;;;;;;6.80;4.20;;;;;;;;;;5058063;28;20058;-64
2023/06/26 12:50:45;;;;;;;6.18;4.10;;;;;;;;;;5048166;28;20014;-64
2023/06/26 12:53:10;;;;;;;6.40;4.00;;;;;;;;;;5044017;28;20027;-64
2023/06/26 12:55:36;;;;;;;6.10;4.30;;;;;;;;;;5051126;28;20365;-65
2023/06/26 12:58:01;;;;;;;7.13;3.70;;;;;;;;;;5048310;28;20071;-64
2023/06/26 13:00:26;;;;;;;6.57;4.28;;;;;;;;;;5051912;28;20373;-63
2023/06/26 13:02:51;;;;;;;5.53;3.80;;;;;;;;;;5051175;28;20025;-64
2023/06/26 13:05:16;;;;;;;8.40;4.15;;;;;;;;;;5051976;28;20020;-66
2023/06/26 13:07:41;;;;;;;7.17;4.13;;;;;;;;;;5046894;28;20115;-64
2023/06/26 13:10:07;;;;;;;5.72;3.90;;;;;;;;;;5048699;28;20032;-64
2023/06/26 13:12:32;;;;;;;4.93;3.30;;;;;;;;;;5049977;28;20108;-64
2023/06/26 13:14:57;;;;;;;6.68;3.88;;;;;;;;;;5050066;28;20443;-64
2023/06/26 13:17:22;;;;;;;6.85;4.05;;;;;;;;;;5050464;28;20013;-64
2023/06/26 13:19:48;;;;;;;8.48;4.13;;;;;;;;;;5050211;28;20029;-62
2023/06/26 13:22:13;;;;;;;6.00;3.90;;;;;;;;;;5049252;28;20071;-66
2023/06/26 13:24:39;;;;;;;6.30;3.92;;;;;;;;;;5045648;28;20071;-66
2023/06/26 13:27:04;;;;;;;6.10;3.70;;;;;;;;;;5050393;28;20244;-65
2023/06/26 13:29:31;;;;;;;8.57;4.50;;;;;;;;;;5050608;28;20555;-65
2023/06/26 13:31:56;;;;;;;8.02;4.10;;;;;;;;;;5049728;28;20495;-66
2023/06/26 13:34:28;;;;;;;6.00;3.90;;;;;;;;;;5051026;28;20051;-65
2023/06/26 13:36:55;;;;;;;7.63;3.85;;;;;;;;;;5041905;28;20177;-64
2023/06/26 13:39:20;;;;;;;7.63;4.35;;;;;;;;;;5050608;28;20033;-64
2023/06/26 13:41:45;;;;;;;6.47;4.00;;;;;;;;;;5050074;28;20519;-64
2023/06/26 13:44:10;;;;;;;6.63;3.70;;;;;;;;;;5039211;28;20116;-64
2023/06/26 13:46:35;;;;;;;5.50;3.67;;;;;;;;;;5048819;28;20025;-65
2023/06/26 13:49:01;;;;;;;6.87;4.23;;;;;;;;;;5049108;28;20009;-65
2023/06/26 13:51:26;;;;;;;7.10;4.13;;;;;;;;;;5046330;28;20029;-65
2023/06/26 13:53:51;;;;;;;6.57;4.03;;;;;;;;;;5047364;28;20025;-65
2023/06/26 13:56:16;;;;;;;6.38;4.00;;;;;;;;;;5049972;28;20037;-64
2023/06/26 13:58:41;;;;;;;6.53;3.53;;;;;;;;;;5047504;28;20036;-65
2023/06/26 14:01:06;;;;;;;5.90;3.90;;;;;;;;;;5048358;28;20501;-64
2023/06/26 14:03:31;;;;;;;5.90;4.17;;;;;;;;;;5049476;28;20017;-64
2023/06/26 14:05:57;;;;;;;6.53;4.20;;;;;;;;;;5049938;28;20071;-65
2023/06/26 14:08:22;;;;;;;5.93;4.07;;;;;;;;;;5050234;28;20117;-66
2023/06/26 14:10:47;;;;;;;6.80;4.20;;;;;;;;;;5050016;28;20071;-66
2023/06/26 14:13:15;;;;;;;6.63;4.37;;;;;;;;;;5048036;28;20060;-66
2023/06/26 14:15:41;;;;;;;10.88;4.40;;;;;;;;;;5044950;28;20545;-64
2023/06/26 14:18:06;;;;;;;6.90;4.05;;;;;;;;;;5050546;28;20111;-64
2023/06/26 14:20:32;;;;;;;7.13;4.27;;;;;;;;;;5049849;28;20503;-63
2023/06/26 14:22:58;;;;;;;6.03;4.00;;;;;;;;;;5049738;28;20021;-65
2023/06/26 14:25:23;;;;;;;6.32;4.20;;;;;;;;;;5049881;28;20104;-64
2023/06/26 14:27:48;;;;;;;6.25;4.07;;;;;;;;;;5039446;28;20036;-64
2023/06/26 14:30:13;;;;;;;6.28;3.92;;;;;;;;;;5047073;28;20495;-65
2023/06/26 14:32:38;;;;;;;7.87;4.23;;;;;;;;;;5049360;28;20021;-64
2023/06/26 14:35:04;;;;;;;6.88;4.35;;;;;;;;;;5053423;28;20079;-64
2023/06/26 14:37:29;;;;;;;5.82;4.10;;;;;;;;;;5052915;28;20024;-65
2023/06/26 14:39:55;;;;;;;6.53;4.07;;;;;;;;;;5047671;28;20045;-64
2023/06/26 14:42:20;;;;;;;6.70;4.40;;;;;;;;;;5044113;28;20060;-65
2023/06/26 14:44:47;;;;;;;6.70;4.22;;;;;;;;;;5050531;28;20020;-65
2023/06/26 14:47:13;;;;;;;6.75;4.10;;;;;;;;;;5051313;28;20514;-66